Hauptseite
METAR-TAF:

METAR-TAF

Flughäfen :

Brüssel, Belgien

Flughafen Brüssel-Zaventem

Breite: 50-54N, Länge: 004-32E, Höhe: 55 m

Beobachtung

Neuester Wetterbericht von vor 21 Minuten, um 02:20 UTC
Wind 11 kt aus Südwest
Temperatur 14°C
Luftfeuchtigkeit 88%
Luftdruck 1010 hPa
Sichtweite 10 km oder mehr
keine Wolken unter 1500 m und keine Kumulonimbus oder Gewitterwolken

METAR: EBBR 280220Z 23011KT CAVOK 14/12 Q1010 NOSIG

Zeit: 04:41 (02:41 UTC)

Prognose

Neuester Wetterbericht von vor 3 Stunden und 31 Minuten, um 23:10 UTC
Gültige Prognose vom 28 um 00 UTC bis 29 um 06 UTC
Wind 10 kt aus Südwest
Sichtweite 10 km oder mehr
Leicht bewölkt in der Höhe von 2500 ft
Aufgelockert bewölkt in der Höhe von 4500 ft

TAF: EBBR 272310Z 2800/2906 23010KT 9999 FEW025 SCT045

Wetterbeobachtungen und Prognosen von mehr als 4000 Flughäfen (METAR und TAF Bericht).

Die verfügbaren Stationen werden durch gelbe und rote Markierungen auf der Karte dargestellt.

Führen Sie die Maus auf sie, um den Namen der Station zu sehen.

Darauf klicken, um die Beobachtung von Wetterbeobachtungen und Prognosen zu sehen.

Um die Karte zu ändern : klicken Sie auf den grünen Tasten mit einem schwarzen Kreuz Zum Vergrößern, auf den grünen Button mit einem Gedankenstrich zu verkleinern, oder auf die grünen Pfeile für benachbarte Karten.


METAR-TAF: